Time;durP1;ratioP1;P1;durP2;ratioP2;P2;SDS_P1;SDS_P2;PMS_P1;PMS_P2;Temp;Humidity;BMP_temperature;BMP_pressure;BME280_temperature;BME280_humidity;BME280_pressure;Samples;Min_cycle;Max_cycle;Signal;HPM_P1;HPM_P2
2021/12/18 00:01:51;;;;;;;16.10;11.23;;;;;;;3.48;74.06;98661.03;4976631;28;20505;-77
2021/12/18 00:04:19;;;;;;;14.40;9.63;;;;;;;3.43;73.38;98657.03;4989738;28;20058;-77
2021/12/18 00:06:48;;;;;;;15.95;9.65;;;;;;;3.30;73.38;98656.91;4985910;28;20062;-77
2021/12/18 00:09:15;;;;;;;14.10;9.57;;;;;;;3.22;73.61;98661.69;4994912;28;20037;-76
2021/12/18 00:11:43;;;;;;;12.25;8.77;;;;;;;3.16;73.97;98668.00;4999747;28;20050;-77
2021/12/18 00:14:10;;;;;;;13.85;8.90;;;;;;;3.19;74.91;98664.41;4986906;28;20122;-76
2021/12/18 00:16:38;;;;;;;15.68;10.95;;;;;;;3.22;75.16;98654.75;4978710;28;20058;-77
2021/12/18 00:19:05;;;;;;;15.68;10.27;;;;;;;3.26;76.00;98651.09;4978387;28;20057;-77
2021/12/18 00:21:36;;;;;;;17.35;10.73;;;;;;;3.36;77.71;98650.56;4999346;28;20555;-76
2021/12/18 00:24:07;;;;;;;16.63;10.15;;;;;;;3.48;78.95;98649.91;4991234;28;20406;-76
2021/12/18 00:26:35;;;;;;;18.15;11.55;;;;;;;3.59;78.90;98652.69;4976605;28;20072;-76
2021/12/18 00:29:03;;;;;;;17.15;10.68;;;;;;;3.66;77.84;98648.84;4976324;28;20482;-76
2021/12/18 00:31:30;;;;;;;16.33;10.55;;;;;;;3.66;76.65;98648.00;4976430;28;20051;-76
2021/12/18 00:33:58;;;;;;;16.63;10.45;;;;;;;3.66;76.53;98658.34;4976325;28;20528;-77
2021/12/18 00:36:26;;;;;;;19.63;11.60;;;;;;;3.67;77.81;98650.53;4981892;28;20053;-77
2021/12/18 00:38:54;;;;;;;18.73;11.50;;;;;;;3.76;78.78;98653.47;4978043;28;20547;-77
2021/12/18 00:41:47;;;;;;;15.68;10.10;;;;;;;3.81;77.99;98649.72;4976323;28;20050;-76
2021/12/18 00:44:16;;;;;;;18.77;11.35;;;;;;;3.88;78.32;98655.34;4975864;28;20058;-77
2021/12/18 00:46:46;;;;;;;19.27;11.85;;;;;;;3.94;79.19;98655.00;4975533;28;20051;-76
2021/12/18 00:49:16;;;;;;;16.38;10.02;;;;;;;3.98;78.83;98650.47;4976128;28;20519;-76
2021/12/18 00:51:45;;;;;;;17.08;10.88;;;;;;;4.00;78.87;98640.88;4976028;28;20054;-76
2021/12/18 00:54:12;;;;;;;17.00;11.52;;;;;;;4.00;77.92;98651.22;4975942;28;20050;-77
2021/12/18 00:56:41;;;;;;;17.15;11.02;;;;;;;4.01;79.33;98655.47;4975469;28;20043;-76
2021/12/18 00:59:09;;;;;;;14.32;9.80;;;;;;;3.98;77.80;98656.47;4975531;28;20051;-77
2021/12/18 01:01:36;;;;;;;15.27;10.27;;;;;;;3.96;76.67;98667.78;4975586;28;20050;-77
2021/12/18 01:04:04;;;;;;;16.60;10.52;;;;;;;3.83;75.66;98665.13;4975521;28;20058;-77
2021/12/18 01:06:33;;;;;;;16.75;10.75;;;;;;;3.69;75.22;98661.56;4975154;28;21396;-77
2021/12/18 01:09:01;;;;;;;15.73;10.68;;;;;;;3.65;76.38;98659.25;4975453;28;20073;-76
2021/12/18 01:11:33;;;;;;;15.52;10.85;;;;;;;3.67;76.06;98660.84;4975198;28;20054;-76
2021/12/18 01:14:30;;;;;;;16.42;11.10;;;;;;;3.63;75.10;98654.19;4975319;28;20058;-76
2021/12/18 01:22:42;;;;;;;15.68;10.27;;;;;;;3.60;75.51;98643.19;4974796;28;20084;-76
2021/12/18 01:22:48;;;;;;;16.73;10.65;;;;;;;3.64;76.02;98660.19;4975465;28;20429;-76
2021/12/18 01:25:18;;;;;;;15.45;10.18;;;;;;;3.64;75.21;98650.69;4975441;28;20077;-76
2021/12/18 01:27:46;;;;;;;15.40;10.02;;;;;;;3.56;75.15;98652.84;4974822;28;20512;-76
2021/12/18 01:30:15;;;;;;;16.63;10.88;;;;;;;3.51;75.58;98654.88;4974986;28;20051;-76
2021/12/18 01:32:43;;;;;;;15.45;9.73;;;;;;;3.47;75.29;98664.53;4975140;28;20102;-76
2021/12/18 01:35:10;;;;;;;17.70;10.52;;;;;;;3.39;75.30;98660.72;4975482;28;20050;-77
2021/12/18 01:37:40;;;;;;;16.20;9.43;;;;;;;3.32;75.07;98660.22;4974487;28;20543;-76
2021/12/18 01:40:08;;;;;;;15.77;9.93;;;;;;;3.27;75.43;98664.81;4974949;28;20060;-77
2021/12/18 01:43:25;;;;;;;14.43;9.07;;;;;;;3.26;75.67;98661.41;4974849;28;20047;-76
2021/12/18 01:46:01;;;;;;;15.40;9.93;;;;;;;3.28;75.55;98656.19;4974757;28;20055;-76
2021/12/18 01:51:25;;;;;;;13.82;9.00;;;;;;;3.26;75.96;98660.59;4973403;28;20054;-77
2021/12/18 01:53:55;;;;;;;15.95;9.18;;;;;;;3.29;76.79;98655.25;4974861;28;20050;-77
2021/12/18 01:56:25;;;;;;;17.30;9.48;;;;;;;3.28;76.08;98657.00;4974324;28;20055;-76
2021/12/18 01:58:54;;;;;;;13.38;9.27;;;;;;;3.28;75.93;98653.59;4974666;28;20055;-77
2021/12/18 02:01:23;;;;;;;15.05;10.15;;;;;;;3.33;77.58;98650.75;4974212;28;20055;-77
2021/12/18 02:03:50;;;;;;;15.55;9.82;;;;;;;3.40;76.88;98644.34;4974030;28;20058;-77
2021/12/18 02:06:20;;;;;;;16.90;10.52;;;;;;;3.43;76.00;98641.56;4973793;28;20141;-77
2021/12/18 02:08:47;;;;;;;18.02;10.88;;;;;;;3.42;75.53;98645.91;4973998;28;20047;-77
2021/12/18 02:11:26;;;;;;;17.05;10.63;;;;;;;3.38;75.73;98638.44;4974359;28;20047;-77
2021/12/18 02:14:10;;;;;;;14.02;9.50;;;;;;;3.41;76.68;98648.56;4974478;28;20059;-77
2021/12/18 02:19:50;;;;;;;15.95;9.80;;;;;;;3.51;76.45;98650.53;4974389;28;20054;-77
2021/12/18 02:22:22;;;;;;;16.75;10.45;;;;;;;3.53;75.85;98640.13;4974401;28;20054;-77
2021/12/18 02:24:49;;;;;;;16.42;10.85;;;;;;;3.59;76.70;98642.38;4973931;28;20440;-77
2021/12/18 02:27:17;;;;;;;17.88;10.98;;;;;;;3.65;76.55;98644.63;4973927;28;20216;-77
2021/12/18 02:29:45;;;;;;;17.70;10.98;;;;;;;3.67;76.72;98645.34;4974259;28;20054;-77
2021/12/18 02:32:15;;;;;;;17.73;11.60;;;;;;;3.68;75.98;98641.00;4988029;28;20055;-77
2021/12/18 02:34:51;;;;;;;16.73;11.02;;;;;;;3.61;75.58;98643.13;4996176;28;20046;-77
2021/12/18 02:37:28;;;;;;;18.38;11.88;;;;;;;3.53;75.25;98654.78;4994713;28;20078;-77
2021/12/18 02:40:49;;;;;;;17.88;10.95;;;;;;;3.45;76.06;98652.63;4973725;28;20082;-77
2021/12/18 02:42:52;;;;;;;16.83;10.95;;;;;;;3.39;75.73;98660.72;4972011;28;20050;-76
2021/12/18 02:45:21;;;;;;;19.38;12.55;;;;;;;3.32;75.94;98660.22;4972243;28;20064;-77
2021/12/18 02:47:49;;;;;;;18.50;11.48;;;;;;;3.23;75.76;98671.88;4971775;28;20516;-77
2021/12/18 02:50:16;;;;;;;19.42;11.93;;;;;;;3.19;76.19;98670.41;4973084;28;20460;-77
2021/12/18 02:52:45;;;;;;;17.60;10.88;;;;;;;3.15;76.11;98668.91;4974136;28;20055;-77
2021/12/18 02:55:13;;;;;;;19.20;12.02;;;;;;;3.13;75.97;98669.88;4973711;28;20057;-77
2021/12/18 02:57:40;;;;;;;21.85;12.73;;;;;;;3.02;75.73;98665.34;4972963;28;20513;-77
2021/12/18 03:00:09;;;;;;;21.60;12.18;;;;;;;2.93;76.40;98669.25;4973662;28;20519;-77
2021/12/18 03:02:40;;;;;;;22.40;13.45;;;;;;;2.94;76.68;98660.59;4973902;28;20059;-76
2021/12/18 03:05:14;;;;;;;18.45;12.00;;;;;;;3.00;77.50;98654.28;4973829;28;20047;-76
2021/12/18 03:07:42;;;;;;;21.50;12.07;;;;;;;3.01;76.77;98661.09;4973424;28;20457;-77
2021/12/18 03:24:20;;;;;;;17.00;11.10;;;;;;;2.67;76.61;98652.59;4996104;28;20051;-76
2021/12/18 03:26:49;;;;;;;18.33;10.95;;;;;;;2.66;76.88;98648.34;4997666;28;20111;-77
2021/12/18 03:29:17;;;;;;;18.38;10.65;;;;;;;2.69;77.13;98650.78;4999819;28;20054;-77
2021/12/18 03:31:45;;;;;;;19.17;10.60;;;;;;;2.72;76.60;98660.09;4999371;28;20081;-77
2021/12/18 03:34:12;;;;;;;18.85;10.88;;;;;;;2.70;76.87;98652.44;4993584;28;20051;-77
2021/12/18 03:36:40;;;;;;;18.13;10.95;;;;;;;2.69;76.72;98653.38;4994230;28;20057;-77
2021/12/18 03:39:07;;;;;;;22.50;12.10;;;;;;;2.73;77.79;98648.84;4998447;28;20050;-76
2021/12/18 03:41:35;;;;;;;20.73;12.25;;;;;;;2.82;78.79;98650.94;4980636;28;20047;-75
2021/12/18 03:44:04;;;;;;;19.73;11.20;;;;;;;2.85;77.54;98638.72;4977631;28;20047;-77
2021/12/18 03:46:32;;;;;;;21.52;11.18;;;;;;;2.82;77.13;98643.19;4984278;28;20051;-77
2021/12/18 03:49:00;;;;;;;18.80;10.57;;;;;;;2.76;76.87;98636.66;4986960;28;20054;-77
2021/12/18 03:51:27;;;;;;;20.75;10.98;;;;;;;2.69;76.75;98635.31;4976895;28;20050;-76
2021/12/18 03:53:55;;;;;;;18.23;10.55;;;;;;;2.63;76.69;98630.50;4977346;28;20051;-77
2021/12/18 03:56:23;;;;;;;16.20;9.70;;;;;;;2.60;76.78;98625.47;4976268;28;20097;-77
2021/12/18 03:58:50;;;;;;;20.15;11.30;;;;;;;2.60;76.78;98628.06;4977385;28;20466;-77
2021/12/18 04:01:19;;;;;;;21.27;10.90;;;;;;;2.64;76.80;98632.13;4977354;28;20057;-76
2021/12/18 04:03:47;;;;;;;19.00;11.10;;;;;;;2.68;76.52;98626.75;4976920;28;20051;-77
2021/12/18 04:06:15;;;;;;;16.95;9.77;;;;;;;2.69;76.47;98625.00;4976864;28;20046;-77
2021/12/18 04:08:42;;;;;;;19.80;11.15;;;;;;;2.71;76.73;98628.31;4976703;28;20432;-77
2021/12/18 04:11:10;;;;;;;17.98;10.90;;;;;;;2.72;76.42;98627.41;4976920;28;20422;-77
2021/12/18 04:13:43;;;;;;;19.63;10.88;;;;;;;2.73;77.13;98613.59;4976472;28;20062;-77
2021/12/18 04:16:11;;;;;;;18.27;11.10;;;;;;;2.81;78.12;98623.50;4976417;28;20046;-77
2021/12/18 04:18:41;;;;;;;19.83;10.93;;;;;;;2.84;77.22;98611.31;4976699;28;20050;-76
2021/12/18 04:21:09;;;;;;;18.55;11.00;;;;;;;2.81;76.71;98611.44;4976533;28;20062;-77
2021/12/18 04:23:37;;;;;;;19.08;9.60;;;;;;;2.80;76.94;98604.66;4976426;28;20127;-77
2021/12/18 04:26:04;;;;;;;19.27;10.43;;;;;;;2.87;77.03;98607.72;4976235;28;20326;-77
2021/12/18 04:28:32;;;;;;;17.88;9.63;;;;;;;2.91;77.42;98609.22;4976101;28;20429;-77
2021/12/18 04:30:59;;;;;;;18.08;9.68;;;;;;;2.95;77.70;98612.44;4976296;28;20054;-77
2021/12/18 04:33:27;;;;;;;15.75;10.38;;;;;;;2.99;76.90;98601.03;4976353;28;20057;-77
2021/12/18 04:35:56;;;;;;;18.70;11.05;;;;;;;3.03;76.75;98608.53;4976064;28;20057;-77
2021/12/18 04:38:23;;;;;;;17.73;10.50;;;;;;;3.05;76.85;98611.84;4975368;28;20047;-76
2021/12/18 04:40:51;;;;;;;18.27;10.35;;;;;;;3.09;76.98;98609.94;4976861;28;20051;-77
2021/12/18 04:43:19;;;;;;;17.27;10.02;;;;;;;3.05;76.53;98619.59;4976337;28;20047;-77
2021/12/18 04:45:47;;;;;;;17.05;10.27;;;;;;;3.02;76.64;98622.34;4975921;28;20051;-77
2021/12/18 04:48:14;;;;;;;16.33;9.43;;;;;;;3.01;76.36;98614.69;4976056;28;20051;-78
2021/12/18 04:50:42;;;;;;;18.48;10.80;;;;;;;2.99;76.08;98622.50;4975914;28;20499;-78
2021/12/18 04:53:11;;;;;;;17.80;10.30;;;;;;;3.01;77.14;98619.84;4976164;28;20047;-77
2021/12/18 04:55:38;;;;;;;19.50;11.13;;;;;;;2.99;76.91;98612.19;4976149;28;20197;-77
2021/12/18 04:58:06;;;;;;;17.90;10.18;;;;;;;2.89;76.01;98616.19;4975531;28;20110;-76
2021/12/18 05:00:38;;;;;;;19.10;10.70;;;;;;;2.77;76.13;98612.53;4995442;23;20047;-75
2021/12/18 05:03:08;;;;;;;20.10;11.43;;;;;;;2.66;75.89;98609.69;4976154;28;20051;-75
2021/12/18 05:05:36;;;;;;;19.48;10.93;;;;;;;2.55;76.47;98619.75;4975174;28;20540;-75
2021/12/18 05:08:04;;;;;;;15.73;9.23;;;;;;;2.51;76.43;98620.81;4974797;28;20386;-75
2021/12/18 05:10:33;;;;;;;14.73;8.80;;;;;;;2.47;76.03;98621.00;4975222;28;20046;-75
2021/12/18 05:13:01;;;;;;;16.40;9.52;;;;;;;2.44;76.20;98625.47;4975042;28;20050;-75
2021/12/18 05:15:28;;;;;;;14.15;8.68;;;;;;;2.44;76.94;98620.31;4974865;28;20055;-75
2021/12/18 05:17:56;;;;;;;14.05;9.02;;;;;;;2.46;76.95;98623.66;4974498;28;20043;-75
2021/12/18 05:20:23;;;;;;;13.43;8.35;;;;;;;2.45;76.55;98627.97;4974691;28;20504;-76
2021/12/18 05:22:51;;;;;;;14.02;8.38;;;;;;;2.45;76.98;98627.97;4974860;28;20104;-76
2021/12/18 05:25:18;;;;;;;17.55;9.48;;;;;;;2.47;77.54;98621.00;4974813;28;20051;-75
2021/12/18 05:27:47;;;;;;;16.38;9.13;;;;;;;2.52;77.01;98625.09;4974812;28;20086;-76
2021/12/18 05:30:15;;;;;;;14.57;8.63;;;;;;;2.55;76.45;98617.19;4974644;28;20046;-75
2021/12/18 05:32:42;;;;;;;15.40;8.30;;;;;;;2.57;76.32;98625.66;4974606;28;20505;-76
2021/12/18 05:35:10;;;;;;;14.70;8.48;;;;;;;2.56;75.91;98629.13;4974385;28;20513;-75
2021/12/18 05:37:50;;;;;;;14.32;8.55;;;;;;;2.55;76.00;98623.16;4974101;28;20051;-75
2021/12/18 05:40:19;;;;;;;13.57;8.07;;;;;;;2.54;75.88;98624.09;4974618;28;20055;-76
2021/12/18 05:42:49;;;;;;;14.07;8.90;;;;;;;2.57;76.52;98620.50;4974364;28;20532;-76
2021/12/18 05:45:17;;;;;;;13.77;8.52;;;;;;;2.55;76.16;98615.44;4974686;28;20055;-75
2021/12/18 05:47:45;;;;;;;14.40;8.40;;;;;;;2.54;76.20;98605.22;4974153;28;20059;-75
2021/12/18 05:50:14;;;;;;;14.43;8.88;;;;;;;2.52;76.63;98613.03;4973671;28;20055;-75
2021/12/18 05:52:44;;;;;;;15.60;9.65;;;;;;;2.55;77.15;98609.44;4974431;28;20125;-76
2021/12/18 05:55:12;;;;;;;14.55;8.40;;;;;;;2.59;77.02;98605.81;4974427;28;20053;-75
2021/12/18 05:57:40;;;;;;;15.15;9.27;;;;;;;2.61;75.98;98611.72;4989531;28;20043;-75
2021/12/18 06:00:10;;;;;;;14.73;8.73;;;;;;;2.54;75.74;98613.78;4997250;28;20047;-75
2021/12/18 06:02:38;;;;;;;15.45;9.43;;;;;;;2.49;76.09;98610.59;4997236;28;20123;-75
2021/12/18 06:05:07;;;;;;;13.52;8.73;;;;;;;2.48;76.22;98612.34;4986655;28;20075;-76
2021/12/18 06:07:51;;;;;;;14.82;9.43;;;;;;;2.46;76.08;98619.31;4977916;28;20055;-75
2021/12/18 06:10:19;;;;;;;14.57;8.43;;;;;;;2.46;76.39;98611.59;4976574;28;20143;-76
2021/12/18 06:12:47;;;;;;;13.75;8.55;;;;;;;2.50;76.10;98614.03;4975622;28;20051;-75
2021/12/18 06:15:16;;;;;;;15.70;9.30;;;;;;;2.44;76.52;98621.16;4974649;28;20046;-76
2021/12/18 06:17:43;;;;;;;17.75;10.35;;;;;;;2.43;76.30;98618.66;4974890;28;20055;-75
2021/12/18 06:20:11;;;;;;;17.35;9.70;;;;;;;2.41;76.20;98615.34;4974255;28;20080;-75
2021/12/18 06:22:39;;;;;;;16.67;9.52;;;;;;;2.42;76.31;98627.28;4974025;28;20539;-76
2021/12/18 06:25:08;;;;;;;15.00;9.48;;;;;;;2.43;76.50;98623.81;4973849;28;20050;-76
2021/12/18 06:27:35;;;;;;;12.40;8.23;;;;;;;2.44;76.19;98618.56;4973818;28;20046;-76
2021/12/18 06:30:04;;;;;;;15.90;9.52;;;;;;;2.43;77.33;98634.13;4973950;28;20053;-75
2021/12/18 06:32:33;;;;;;;15.65;9.02;;;;;;;2.42;76.66;98629.88;4973797;28;20061;-75
2021/12/18 06:35:00;;;;;;;14.68;8.68;;;;;;;2.37;76.27;98629.28;4973881;28;20054;-75
2021/12/18 06:37:28;;;;;;;17.65;10.10;;;;;;;2.32;76.36;98631.25;4973661;28;20504;-75
2021/12/18 06:39:56;;;;;;;18.95;10.85;;;;;;;2.31;76.63;98624.47;4974249;28;20058;-75
2021/12/18 06:42:37;;;;;;;15.80;9.80;;;;;;;2.33;77.32;98636.34;4973925;28;20137;-76
2021/12/18 06:45:05;;;;;;;17.75;9.80;;;;;;;2.35;76.85;98637.09;4973886;28;20067;-76
2021/12/18 06:47:34;;;;;;;16.88;10.15;;;;;;;2.41;77.08;98634.19;4973325;28;20058;-76
2021/12/18 06:50:02;;;;;;;15.88;9.82;;;;;;;2.46;76.47;98626.22;4973187;28;20057;-75
2021/12/18 06:52:29;;;;;;;15.38;9.05;;;;;;;2.47;76.68;98631.31;4973704;28;20046;-75
2021/12/18 06:54:57;;;;;;;17.02;10.63;;;;;;;2.45;76.08;98633.13;4973204;28;20501;-76
2021/12/18 06:57:24;;;;;;;18.52;10.45;;;;;;;2.46;77.48;98639.94;4973411;28;20501;-76
2021/12/18 06:59:52;;;;;;;19.02;10.35;;;;;;;2.47;77.13;98636.47;4973419;28;20055;-75
2021/12/18 07:02:20;;;;;;;17.15;10.30;;;;;;;2.43;76.71;98644.44;4976597;28;20055;-76
2021/12/18 07:04:49;;;;;;;20.75;11.90;;;;;;;2.36;76.55;98643.06;4977290;28;20051;-74
2021/12/18 07:07:16;;;;;;;16.55;9.90;;;;;;;2.29;76.22;98639.97;4977113;28;20057;-75
2021/12/18 07:09:44;;;;;;;18.60;10.48;;;;;;;2.23;76.31;98642.88;4974626;28;20058;-75
2021/12/18 07:12:12;;;;;;;15.70;8.88;;;;;;;2.16;76.63;98644.09;4977045;28;20500;-76
2021/12/18 07:14:39;;;;;;;19.92;11.10;;;;;;;2.18;77.53;98644.84;4977135;28;20513;-76
2021/12/18 07:17:07;;;;;;;17.30;9.98;;;;;;;2.22;76.85;98646.38;4977040;28;20058;-75
2021/12/18 07:19:35;;;;;;;18.48;10.13;;;;;;;2.20;76.89;98649.00;4982188;28;20481;-73
2021/12/18 07:22:04;;;;;;;20.15;11.32;;;;;;;2.23;77.51;98642.88;4984351;28;20054;-74
2021/12/18 07:24:31;;;;;;;17.63;9.88;;;;;;;2.30;77.98;98643.41;4984119;28;20409;-74
2021/12/18 07:26:59;;;;;;;16.63;9.68;;;;;;;2.38;77.34;98648.97;4980788;28;20077;-75
2021/12/18 07:29:27;;;;;;;16.90;10.13;;;;;;;2.43;77.34;98644.44;4977758;28;20047;-75
2021/12/18 07:31:54;;;;;;;20.80;11.20;;;;;;;2.47;77.95;98649.34;4977238;28;20050;-75
2021/12/18 07:34:23;;;;;;;19.67;10.95;;;;;;;2.54;77.61;98656.75;4977285;28;20054;-74
2021/12/18 07:36:51;;;;;;;17.58;10.02;;;;;;;2.59;76.87;98658.16;4977073;28;20393;-75
2021/12/18 07:39:20;;;;;;;17.55;11.68;;;;;;;2.65;78.51;98654.44;4977141;28;20050;-76
2021/12/18 07:41:47;;;;;;;16.60;10.60;;;;;;;2.71;77.94;98651.50;4976978;28;20113;-75
2021/12/18 07:44:15;;;;;;;17.63;10.25;;;;;;;2.70;76.43;98644.69;4976878;28;20062;-74
2021/12/18 07:46:42;;;;;;;17.55;10.45;;;;;;;2.68;76.69;98643.94;4976670;28;20050;-75
2021/12/18 07:49:10;;;;;;;17.77;11.27;;;;;;;2.68;76.93;98631.91;4977044;28;20138;-75
2021/12/18 07:51:38;;;;;;;16.35;10.57;;;;;;;2.73;76.88;98629.06;4976812;28;20062;-75
2021/12/18 07:54:07;;;;;;;14.75;9.35;;;;;;;2.76;76.23;98634.06;4976567;28;20539;-75
2021/12/18 07:56:36;;;;;;;18.10;11.48;;;;;;;2.78;76.39;98634.00;4976470;28;20058;-75
2021/12/18 07:59:04;;;;;;;15.63;10.32;;;;;;;2.80;76.10;98632.13;4976646;28;20050;-75
2021/12/18 08:01:31;;;;;;;19.58;10.20;;;;;;;2.72;75.75;98632.56;4976544;28;20077;-74
2021/12/18 08:03:59;;;;;;;15.85;10.23;;;;;;;2.64;75.74;98632.97;4976538;28;20050;-75
2021/12/18 08:06:27;;;;;;;18.20;10.23;;;;;;;2.59;75.93;98632.38;4976038;28;20051;-75
2021/12/18 08:08:55;;;;;;;15.50;10.65;;;;;;;2.60;75.97;98630.63;4976200;28;20130;-76
2021/12/18 08:11:23;;;;;;;19.25;12.23;;;;;;;2.70;77.76;98639.53;4976150;28;20054;-75
2021/12/18 08:13:51;;;;;;;16.40;10.25;;;;;;;2.77;76.90;98643.44;4975114;28;20062;-75
2021/12/18 08:16:20;;;;;;;18.48;10.65;;;;;;;2.85;77.01;98645.63;4975901;28;20057;-75
2021/12/18 08:18:47;;;;;;;17.70;11.73;;;;;;;2.92;76.87;98646.13;4975938;28;20064;-76
2021/12/18 08:21:15;;;;;;;18.80;11.15;;;;;;;2.93;75.99;98647.78;4975923;28;20054;-75
2021/12/18 08:23:42;;;;;;;23.67;14.10;;;;;;;2.94;75.85;98644.31;4975884;28;20050;-76
2021/12/18 08:26:11;;;;;;;17.17;10.32;;;;;;;2.94;75.62;98650.28;4975754;28;20111;-75
2021/12/18 08:28:38;;;;;;;16.40;11.00;;;;;;;2.95;75.67;98651.09;4976237;28;20078;-75
2021/12/18 08:31:07;;;;;;;15.30;9.45;;;;;;;2.93;75.10;98648.63;4976189;28;20055;-75
2021/12/18 08:33:35;;;;;;;17.98;10.60;;;;;;;2.92;75.48;98646.94;4975839;28;20058;-75
2021/12/18 08:36:02;;;;;;;16.05;10.90;;;;;;;2.95;75.62;98648.53;4975881;28;20046;-75
2021/12/18 08:38:30;;;;;;;19.85;11.57;;;;;;;3.01;76.73;98648.19;4975892;28;20050;-75
2021/12/18 08:40:57;;;;;;;19.83;13.20;;;;;;;3.09;77.32;98658.94;4976336;28;20042;-75
2021/12/18 08:43:25;;;;;;;18.58;11.35;;;;;;;3.12;76.22;98655.34;4978954;28;20059;-76
2021/12/18 08:45:52;;;;;;;15.98;10.43;;;;;;;3.07;75.99;98660.75;4975288;28;20535;-75
2021/12/18 08:48:21;;;;;;;19.15;11.75;;;;;;;3.05;75.80;98663.41;4956536;28;20066;-76
2021/12/18 08:50:50;;;;;;;18.10;11.90;;;;;;;3.02;75.22;98663.59;4957155;28;20043;-75
2021/12/18 08:53:17;;;;;;;22.85;14.68;;;;;;;2.98;75.42;98661.28;4965987;28;20058;-75
2021/12/18 08:55:45;;;;;;;17.42;11.80;;;;;;;2.99;75.53;98658.59;4975420;28;20051;-78
2021/12/18 08:58:12;;;;;;;17.60;11.82;;;;;;;3.01;75.67;98658.50;4975294;28;20062;-75
2021/12/18 09:00:40;;;;;;;21.05;12.50;;;;;;;3.06;76.60;98659.09;4962645;28;20050;-76
2021/12/18 09:03:08;;;;;;;22.08;12.48;;;;;;;3.13;76.75;98657.00;4976563;28;20138;-75
2021/12/18 09:05:37;;;;;;;16.38;10.82;;;;;;;3.17;75.36;98650.75;4976737;28;20385;-75
2021/12/18 09:08:05;;;;;;;17.27;11.25;;;;;;;3.18;75.39;98662.75;4975463;28;20058;-75
2021/12/18 09:10:32;;;;;;;17.48;11.60;;;;;;;3.23;75.24;98647.84;4975179;28;20058;-75
2021/12/18 09:13:00;;;;;;;17.52;11.20;;;;;;;3.25;74.62;98646.00;4975603;28;20050;-75
2021/12/18 09:15:28;;;;;;;17.33;12.07;;;;;;;3.25;74.34;98649.41;4975515;28;20058;-76
2021/12/18 09:17:56;;;;;;;18.60;12.02;;;;;;;3.28;75.14;98657.00;4957087;28;20055;-75
2021/12/18 09:20:23;;;;;;;19.27;12.20;;;;;;;3.34;74.85;98652.41;4955784;29;20472;-75
2021/12/18 09:22:52;;;;;;;17.52;11.80;;;;;;;3.36;74.34;98660.91;4955874;29;20059;-74
2021/12/18 09:25:20;;;;;;;17.95;11.25;;;;;;;3.35;74.41;98659.25;4955257;28;20047;-76
2021/12/18 09:27:47;;;;;;;17.00;12.23;;;;;;;3.30;73.64;98654.31;4955296;29;20054;-75
2021/12/18 09:30:15;;;;;;;19.52;12.02;;;;;;;3.26;74.07;98656.25;4955477;29;20055;-76
2021/12/18 09:32:44;;;;;;;18.83;12.38;;;;;;;3.28;74.30;98659.59;4955303;29;20055;-74
2021/12/18 09:35:12;;;;;;;19.63;12.88;;;;;;;3.28;73.91;98658.75;4955434;29;20057;-75
2021/12/18 09:37:40;;;;;;;25.38;16.55;;;;;;;3.28;73.91;98654.44;4973746;28;20055;-75
2021/12/18 09:40:11;;;;;;;19.65;12.57;;;;;;;3.23;73.38;98651.25;4974214;28;20043;-75
2021/12/18 09:42:39;;;;;;;20.02;13.25;;;;;;;3.13;74.01;98655.28;4974857;28;20051;-75
2021/12/18 09:45:08;;;;;;;18.08;11.65;;;;;;;3.07;73.71;98653.84;4974041;28;20070;-76
2021/12/18 09:47:35;;;;;;;20.92;13.63;;;;;;;3.06;73.93;98652.19;4974506;28;20429;-74
2021/12/18 09:50:04;;;;;;;22.58;13.43;;;;;;;3.09;73.89;98654.59;4974194;28;20082;-75
2021/12/18 09:52:34;;;;;;;24.33;14.40;;;;;;;3.10;74.35;98660.59;4974329;28;20054;-77
2021/12/18 09:55:03;;;;;;;19.80;12.57;;;;;;;3.14;74.20;98645.78;4975025;28;20508;-75
2021/12/18 09:57:32;;;;;;;20.15;13.20;;;;;;;3.16;74.54;98644.78;4974263;28;20050;-75
2021/12/18 10:00:00;;;;;;;24.60;14.27;;;;;;;3.21;75.09;98642.75;4974040;28;20058;-75
2021/12/18 10:02:30;;;;;;;24.00;13.45;;;;;;;3.28;74.75;98627.81;4974438;28;20046;-76
2021/12/18 10:04:57;;;;;;;17.02;12.10;;;;;;;3.32;74.16;98636.19;4974168;28;20732;-76
2021/12/18 10:07:26;;;;;;;21.52;13.68;;;;;;;3.26;73.76;98630.47;4973769;28;20054;-76
2021/12/18 10:09:56;;;;;;;22.50;13.82;;;;;;;3.26;73.42;98620.16;4973733;28;20047;-75
2021/12/18 10:12:25;;;;;;;20.30;13.05;;;;;;;3.22;73.43;98616.06;4974107;28;20077;-75
2021/12/18 10:14:57;;;;;;;20.55;13.07;;;;;;;3.16;73.74;98621.56;4974237;28;20061;-75
2021/12/18 10:17:28;;;;;;;22.77;12.75;;;;;;;3.16;73.46;98621.56;4973705;28;20053;-75
2021/12/18 10:20:15;;;;;;;21.88;12.80;;;;;;;3.15;73.21;98611.31;4973762;28;20053;-75
2021/12/18 10:22:47;;;;;;;20.33;12.98;;;;;;;3.14;73.58;98615.66;4973582;28;20058;-74
2021/12/18 10:25:16;;;;;;;19.53;13.60;;;;;;;3.18;73.89;98609.41;4975069;28;20043;-74
2021/12/18 10:27:56;;;;;;;17.55;12.10;;;;;;;3.18;73.35;98606.84;4975399;28;20284;-75
2021/12/18 10:30:25;;;;;;;22.30;14.23;;;;;;;3.16;73.60;98613.84;4977572;28;20061;-75
2021/12/18 10:32:57;;;;;;;28.05;17.33;;;;;;;3.18;73.47;98608.59;4979979;28;20061;-75
2021/12/18 10:35:40;;;;;;;20.60;13.38;;;;;;;3.18;73.36;98604.25;4977399;28;20054;-75
2021/12/18 10:38:08;;;;;;;19.80;12.70;;;;;;;3.21;73.20;98600.69;4988548;28;20536;-74
2021/12/18 10:40:43;;;;;;;20.60;12.82;;;;;;;3.22;72.70;98603.19;4996190;28;20057;-75
2021/12/18 10:43:11;;;;;;;20.15;12.73;;;;;;;3.24;72.95;98603.09;4995864;28;20050;-75
2021/12/18 10:45:40;;;;;;;19.08;13.30;;;;;;;3.24;72.96;98596.19;4979987;28;20050;-75
2021/12/18 10:48:09;;;;;;;21.17;14.07;;;;;;;3.29;74.56;98593.34;4978266;28;20055;-75
2021/12/18 10:50:41;;;;;;;24.45;14.73;;;;;;;3.39;76.18;98594.50;4977588;28;20050;-74
2021/12/18 10:53:13;;;;;;;20.85;13.80;;;;;;;3.49;74.95;98594.78;4977496;28;20105;-75
2021/12/18 10:55:46;;;;;;;20.88;13.15;;;;;;;3.51;74.25;98587.78;4977347;28;20073;-73
2021/12/18 10:58:18;;;;;;;21.75;13.57;;;;;;;3.51;73.57;98592.94;4974484;28;20354;-75
2021/12/18 11:00:59;;;;;;;21.98;13.70;;;;;;;3.46;73.22;98588.06;4982220;23;20390;-75
2021/12/18 11:03:33;;;;;;;25.17;15.48;;;;;;;3.42;73.12;98596.06;4951802;28;20067;-76
2021/12/18 11:06:13;;;;;;;24.25;14.60;;;;;;;3.45;73.68;98588.97;4951451;28;20050;-74
2021/12/18 11:08:53;;;;;;;40.05;23.73;;;;;;;3.57;74.66;98577.13;4952113;29;20059;-75
2021/12/18 11:14:11;;;;;;;21.27;13.07;;;;;;;3.71;72.65;98582.28;4952650;29;20051;-74
2021/12/18 11:16:44;;;;;;;23.52;13.95;;;;;;;3.64;71.70;98572.44;4953358;29;20054;-76
2021/12/18 11:19:14;;;;;;;19.52;13.07;;;;;;;3.56;72.25;98572.84;4954078;29;20051;-75
2021/12/18 11:21:43;;;;;;;23.40;13.77;;;;;;;3.51;72.39;98565.38;4953928;29;20047;-74
2021/12/18 11:24:12;;;;;;;23.35;13.00;;;;;;;3.48;72.48;98563.00;4953902;29;20075;-75
2021/12/18 11:26:45;;;;;;;22.27;14.05;;;;;;;3.49;72.29;98559.47;4953402;29;20055;-75
2021/12/18 11:29:19;;;;;;;27.13;14.05;;;;;;;3.49;72.36;98559.47;4953558;29;20055;-74
2021/12/18 11:31:49;;;;;;;22.05;13.82;;;;;;;3.49;72.52;98548.34;4953912;29;20051;-75
2021/12/18 11:34:17;;;;;;;25.00;14.65;;;;;;;3.47;72.27;98551.00;4953589;29;20054;-77
2021/12/18 11:36:48;;;;;;;24.00;15.00;;;;;;;3.44;72.49;98550.38;4954169;29;20070;-78
2021/12/18 11:39:18;;;;;;;23.70;13.38;;;;;;;3.42;72.64;98541.88;4954324;29;20043;-77
2021/12/18 11:41:48;;;;;;;24.98;14.30;;;;;;;3.46;72.38;98538.22;4954299;29;20058;-78
2021/12/18 11:44:27;;;;;;;23.88;14.77;;;;;;;3.46;71.84;98533.88;4954055;29;20055;-76
2021/12/18 11:46:57;;;;;;;22.10;13.73;;;;;;;3.46;72.35;98528.72;4954150;28;20067;-76
2021/12/18 11:49:26;;;;;;;20.75;12.75;;;;;;;3.47;72.56;98524.38;4957771;29;20054;-77
2021/12/18 11:51:58;;;;;;;23.13;13.15;;;;;;;3.48;72.26;98524.28;4957486;29;20058;-75
2021/12/18 11:54:49;;;;;;;24.38;14.60;;;;;;;3.48;72.13;98521.72;4957257;29;20062;-76
2021/12/18 11:57:36;;;;;;;22.50;14.40;;;;;;;3.52;72.42;98524.97;4957655;29;20058;-78
2021/12/18 12:00:07;;;;;;;23.05;14.60;;;;;;;3.50;72.42;98511.31;4958877;29;20051;-77
2021/12/18 12:02:48;;;;;;;20.40;13.55;;;;;;;3.47;72.01;98514.06;4957683;29;20043;-79
2021/12/18 12:05:18;;;;;;;22.27;13.57;;;;;;;3.43;72.30;98508.25;4957779;29;20058;-76